Accueil
METAR-TAF:

METAR-TAF

Aéroports :

Ataq, Yémen

latitude: 14-31N, longitude: 046-51E, altitude: 1067 m

Observation

Le bulletin a été fait il y a 14 heures et 6 minutes, à 15:00 UTC
Vent 10 kt de sud-est
Température 33°C
Humidité 39%
Pression 1012 hPa
Visibilité 10 km ou plus
Quelques nuages à une hauteur de 3000 ft

METAR: OYAT 121500Z 13010KT 9999 FEW030 33/17 Q1012

Heure: 08:06 (05:06 UTC)


TAF: absent

Observations et prévisions météorologiques de plus de 4000 aéroports (messages METAR et TAF).

Les stations disponibles sont représentées par des disques jaunes et rouges sur la carte.

Passer la souris dessus pour voir le nom de la station.

Cliquer dessus pour voir les observations et prévisions météorologiques.

Pour changer de carte: cliquez sur les boutons verts avec une croix noire pour zoomer, sur le bouton vert avec un tiret pour effectuer un zoom arrière, ou sur les flèches vertes pour les cartes adjacentes.


METAR-TAF: